Time;durP1;ratioP1;P1;durP2;ratioP2;P2;SDS_P1;SDS_P2;PMS_P1;PMS_P2;Temp;Humidity;BMP_temperature;BMP_pressure;BME280_temperature;BME280_humidity;BME280_pressure;Samples;Min_cycle;Max_cycle;Signal;HPM_P1;HPM_P2
2021/08/11 00:00:10;;;;;;;9.07;6.18;;;;;;;24.73;100.00;96581.41;5000045;28;20565;-54
2021/08/11 00:02:38;;;;;;;7.85;5.55;;;;;;;24.76;100.00;96587.16;5005414;28;20069;-52
2021/08/11 00:05:08;;;;;;;8.40;6.32;;;;;;;24.93;100.00;96586.50;5008463;28;20065;-48
2021/08/11 00:07:39;;;;;;;7.73;6.00;;;;;;;24.67;100.00;96585.84;5006964;28;20062;-49
2021/08/11 00:10:08;;;;;;;10.05;5.72;;;;;;;24.18;100.00;96587.75;5008728;28;20515;-50
2021/08/11 00:12:37;;;;;;;6.78;5.40;;;;;;;24.38;100.00;96584.81;5008206;28;20061;-50
2021/08/11 00:15:06;;;;;;;8.60;5.47;;;;;;;24.72;100.00;96587.88;5002607;28;20065;-49
2021/08/11 00:17:35;;;;;;;8.57;6.00;;;;;;;24.28;100.00;96582.66;5003098;28;20065;-52
2021/08/11 00:20:06;;;;;;;11.27;5.72;;;;;;;25.09;100.00;96583.94;5017053;28;20085;-51
2021/08/11 00:22:34;;;;;;;;;;;;;;;25.27;100.00;96585.72;5010699;28;20077;-48
2021/08/11 00:25:04;;;;;;;7.07;4.93;;;;;;;25.07;100.00;96590.63;5009216;28;19971;-54
2021/08/11 00:27:32;;;;;;;8.45;5.90;;;;;;;24.65;100.00;96593.34;5005826;28;20072;-51
2021/08/11 00:30:01;;;;;;;9.32;5.45;;;;;;;25.09;100.00;96588.53;5010171;28;20076;-53
2021/08/11 00:32:30;;;;;;;9.48;5.35;;;;;;;25.40;100.00;96590.09;5007987;28;20081;-51
2021/08/11 00:34:59;;;;;;;7.60;5.68;;;;;;;25.37;100.00;96590.56;5010106;28;20096;-49
2021/08/11 00:37:27;;;;;;;6.25;5.45;;;;;;;24.87;100.00;96590.94;5010105;28;20088;-48
2021/08/11 00:39:58;;;;;;;8.00;5.43;;;;;;;24.87;100.00;96585.53;5010260;28;20122;-48
2021/08/11 00:42:28;;;;;;;9.82;5.60;;;;;;;24.99;100.00;96588.28;5003248;28;20065;-49
2021/08/11 00:44:57;;;;;;;8.23;5.60;;;;;;;24.15;100.00;96596.28;5011895;28;20550;-48
2021/08/11 00:47:30;;;;;;;11.50;5.82;;;;;;;24.14;100.00;96603.56;5010307;28;20589;-48
2021/08/11 00:49:58;;;;;;;11.48;5.88;;;;;;;23.86;100.00;96600.59;5013755;28;20093;-49
2021/08/11 00:52:27;;;;;;;8.73;5.70;;;;;;;24.89;100.00;96588.84;5004610;28;20057;-53
2021/08/11 00:54:56;;;;;;;6.78;5.60;;;;;;;25.01;100.00;96602.34;5011735;28;20072;-52
2021/08/11 00:57:27;;;;;;;7.72;5.82;;;;;;;24.44;100.00;96601.97;5013000;28;20065;-48
2021/08/11 00:59:58;;;;;;;8.88;6.05;;;;;;;24.68;100.00;96601.00;5009480;28;20082;-47
2021/08/11 01:02:27;;;;;;;8.52;5.82;;;;;;;24.78;100.00;96603.94;5006457;28;20066;-50
2021/08/11 01:04:58;;;;;;;8.35;5.78;;;;;;;25.00;100.00;96606.09;5010247;28;20088;-51
2021/08/11 01:07:28;;;;;;;8.32;6.55;;;;;;;24.59;100.00;96610.44;5004006;28;20058;-58
2021/08/11 01:09:57;;;;;;;12.37;6.80;;;;;;;24.99;100.00;96602.59;5007978;28;20074;-52
2021/08/11 01:12:27;;;;;;;9.73;6.20;;;;;;;25.06;100.00;96611.38;4996083;28;21073;-48
2021/08/11 01:14:57;;;;;;;8.60;5.80;;;;;;;25.64;100.00;96606.28;5005463;28;20072;-47
2021/08/11 01:17:28;;;;;;;9.75;6.20;;;;;;;25.62;100.00;96606.50;5008186;28;20092;-48
2021/08/11 01:20:00;;;;;;;10.43;7.03;;;;;;;25.25;100.00;96614.81;5012140;28;20089;-53
2021/08/11 01:22:32;;;;;;;8.32;6.38;;;;;;;25.03;100.00;96608.34;5007703;28;20100;-51
2021/08/11 01:25:06;;;;;;;8.45;6.55;;;;;;;25.64;100.00;96612.50;5006277;28;20084;-50
2021/08/11 01:28:03;;;;;;;12.57;7.45;;;;;;;25.37;100.00;96619.44;5010339;28;20080;-51
2021/08/11 01:30:36;;;;;;;11.18;6.90;;;;;;;24.76;100.00;96624.09;4987692;28;20074;-53
2021/08/11 01:33:20;;;;;;;10.40;6.78;;;;;;;24.76;100.00;96622.22;5005576;28;20061;-47
2021/08/11 01:35:53;;;;;;;12.65;6.45;;;;;;;24.41;100.00;96619.41;5006576;28;20484;-48
2021/08/11 01:38:22;;;;;;;9.48;6.20;;;;;;;24.87;100.00;96612.50;5009442;28;20077;-46
2021/08/11 01:40:56;;;;;;;11.63;6.75;;;;;;;24.53;100.00;96620.28;5011596;28;20081;-48
2021/08/11 01:43:26;;;;;;;8.23;6.53;;;;;;;24.42;100.00;96625.63;5007397;28;20073;-47
2021/08/11 01:45:56;;;;;;;8.02;6.30;;;;;;;24.58;100.00;96617.72;5008565;28;20070;-50
2021/08/11 01:48:28;;;;;;;11.30;6.43;;;;;;;24.37;100.00;96613.63;5008153;28;20069;-52
2021/08/11 01:50:57;;;;;;;7.93;6.68;;;;;;;24.87;100.00;96615.22;5009538;28;20069;-50
2021/08/11 01:53:26;;;;;;;9.45;6.38;;;;;;;24.52;100.00;96617.81;5004385;28;20081;-56
2021/08/11 01:55:56;;;;;;;10.13;6.63;;;;;;;24.49;100.00;96623.66;5017214;28;20096;-50
2021/08/11 01:58:26;;;;;;;9.15;5.90;;;;;;;24.90;100.00;96612.06;5008055;28;20073;-51
2021/08/11 02:00:59;;;;;;;9.07;6.40;;;;;;;24.83;100.00;96614.03;5006766;28;20540;-56
2021/08/11 02:03:29;;;;;;;11.48;6.40;;;;;;;25.06;100.00;96608.69;5023867;28;20078;-50
2021/08/11 02:05:58;;;;;;;10.57;6.57;;;;;;;24.69;100.00;96601.81;5008090;28;20062;-49
2021/08/11 02:08:26;;;;;;;9.13;6.75;;;;;;;24.85;100.00;96604.66;5011166;28;20081;-46
2021/08/11 02:10:56;;;;;;;10.98;7.03;;;;;;;24.60;100.00;96609.38;5009783;28;20089;-49
2021/08/11 02:13:25;;;;;;;10.50;6.60;;;;;;;24.73;100.00;96597.59;5007945;28;20065;-54
2021/08/11 02:15:54;;;;;;;10.88;6.28;;;;;;;24.55;100.00;96604.69;5008467;28;20060;-49
2021/08/11 02:18:23;;;;;;;10.82;6.07;;;;;;;24.78;100.00;96603.94;5003923;28;20076;-50
2021/08/11 02:20:52;;;;;;;7.85;6.05;;;;;;;24.54;100.00;96611.16;5003086;28;20066;-46
2021/08/11 02:23:21;;;;;;;9.25;6.45;;;;;;;24.87;100.00;96605.25;4985276;28;20525;-50
2021/08/11 02:25:54;;;;;;;11.80;7.07;;;;;;;24.54;100.00;96611.16;4995221;28;20074;-52
2021/08/11 02:28:27;;;;;;;9.68;6.30;;;;;;;24.41;100.00;96613.22;5003822;28;20066;-49
2021/08/11 02:30:59;;;;;;;10.88;6.35;;;;;;;24.48;100.00;96613.94;4991156;28;20559;-49
2021/08/11 02:33:34;;;;;;;8.77;6.35;;;;;;;23.78;100.00;96617.03;4987269;28;20070;-46
2021/08/11 02:36:09;;;;;;;10.45;6.13;;;;;;;24.10;100.00;96598.84;4998586;28;20107;-54
2021/08/11 02:38:41;;;;;;;8.98;6.00;;;;;;;23.74;100.00;96605.91;5005383;28;20062;-47
2021/08/11 02:41:12;;;;;;;10.18;6.50;;;;;;;24.52;100.00;96609.72;5005261;28;20042;-55
2021/08/11 02:43:45;;;;;;;8.35;6.50;;;;;;;24.06;100.00;96613.84;5010184;28;20597;-47
2021/08/11 02:46:19;;;;;;;7.07;5.68;;;;;;;24.81;100.00;96616.97;4987799;28;20073;-47
2021/08/11 02:48:52;;;;;;;8.63;6.10;;;;;;;24.62;100.00;96620.78;5000483;28;20065;-48
2021/08/11 02:51:27;;;;;;;8.13;6.05;;;;;;;23.78;100.00;96617.88;4998879;28;20065;-50
2021/08/11 02:53:56;;;;;;;8.73;6.80;;;;;;;24.02;100.00;96618.84;4991549;28;20074;-51
2021/08/11 02:56:24;;;;;;;9.68;6.28;;;;;;;24.66;100.00;96613.06;5004079;28;20467;-49
2021/08/11 02:58:54;;;;;;;7.32;5.65;;;;;;;24.11;100.00;96622.06;4988152;28;20117;-50
2021/08/11 03:01:22;;;;;;;9.70;6.43;;;;;;;24.14;100.00;96627.81;4989115;28;20057;-50
2021/08/11 03:03:51;;;;;;;9.75;6.07;;;;;;;24.05;100.00;96623.75;4994930;28;20072;-52
2021/08/11 03:06:20;;;;;;;7.60;5.75;;;;;;;24.08;100.00;96623.31;4992782;28;20073;-51
2021/08/11 03:08:51;;;;;;;11.15;6.20;;;;;;;24.13;100.00;96623.47;5002430;28;20699;-51
2021/08/11 03:11:20;;;;;;;7.97;6.25;;;;;;;24.41;100.00;96624.00;5001479;28;20104;-54
2021/08/11 03:13:49;;;;;;;11.02;6.30;;;;;;;23.92;100.00;96622.06;5004616;28;20084;-49
2021/08/11 03:16:17;;;;;;;10.63;6.55;;;;;;;24.17;100.00;96618.47;4991209;28;20073;-53
2021/08/11 03:18:46;;;;;;;10.48;6.70;;;;;;;23.92;100.00;96614.00;4987245;28;20081;-50
2021/08/11 03:21:14;;;;;;;14.05;6.68;;;;;;;24.12;100.00;96605.69;4987898;28;20556;-48
2021/08/11 03:23:43;;;;;;;12.13;6.45;;;;;;;23.98;100.00;96609.56;4990050;28;20069;-52
2021/08/11 03:26:12;;;;;;;10.52;6.35;;;;;;;24.22;100.00;96607.81;4992565;28;20760;-47
2021/08/11 03:28:41;;;;;;;7.22;5.97;;;;;;;24.15;100.00;96607.06;5000525;28;20426;-51
2021/08/11 03:31:09;;;;;;;11.02;6.93;;;;;;;24.18;100.00;96614.72;5001931;28;20448;-52
2021/08/11 03:33:38;;;;;;;10.10;6.43;;;;;;;24.23;100.00;96614.03;4991324;28;20058;-52
2021/08/11 03:36:06;;;;;;;10.30;6.55;;;;;;;23.96;100.00;96616.25;4993883;28;20543;-48
2021/08/11 03:38:35;;;;;;;8.90;6.15;;;;;;;24.49;100.00;96616.38;5006173;28;20062;-49
2021/08/11 03:41:03;;;;;;;8.15;6.30;;;;;;;24.12;100.00;96616.44;5007780;28;20077;-49
2021/08/11 03:43:33;;;;;;;8.52;6.38;;;;;;;24.44;100.00;96610.06;5002140;28;20507;-49
2021/08/11 03:46:02;;;;;;;13.57;6.50;;;;;;;23.66;100.00;96616.94;5009071;28;20087;-54
2021/08/11 03:48:30;;;;;;;9.40;5.97;;;;;;;23.90;100.00;96618.78;4996186;28;20508;-49
2021/08/11 03:50:59;;;;;;;9.18;6.90;;;;;;;23.71;100.00;96617.13;5001068;28;20065;-54
2021/08/11 03:53:28;;;;;;;9.05;6.35;;;;;;;24.20;100.00;96609.09;5013610;28;20068;-52
2021/08/11 03:55:57;;;;;;;8.80;6.05;;;;;;;24.10;100.00;96606.94;5013256;28;20077;-51
2021/08/11 03:58:26;;;;;;;8.50;6.30;;;;;;;24.44;100.00;96610.88;5009814;28;20080;-53
2021/08/11 04:00:56;;;;;;;10.48;6.60;;;;;;;23.95;100.00;96617.25;5009973;28;20104;-56
2021/08/11 04:03:25;;;;;;;12.95;6.80;;;;;;;23.28;100.00;96619.81;5011164;28;20045;-57
2021/08/11 04:05:54;;;;;;;10.27;6.88;;;;;;;24.07;100.00;96619.00;5011685;28;20084;-53
2021/08/11 04:08:23;;;;;;;8.25;7.13;;;;;;;24.51;100.00;96625.09;5005564;28;20077;-57
2021/08/11 04:10:53;;;;;;;10.35;6.80;;;;;;;24.68;100.00;96624.44;5013624;28;20064;-54
2021/08/11 04:13:21;;;;;;;9.90;6.97;;;;;;;24.19;100.00;96634.38;5009526;28;20127;-55
2021/08/11 04:15:51;;;;;;;10.45;6.50;;;;;;;24.14;100.00;96632.38;5009141;28;20038;-57
2021/08/11 04:18:24;;;;;;;9.50;6.53;;;;;;;24.30;100.00;96628.25;5008545;28;20073;-56
2021/08/11 04:20:53;;;;;;;7.25;6.35;;;;;;;24.11;100.00;96624.75;5011208;28;20065;-55
2021/08/11 04:23:22;;;;;;;11.25;6.45;;;;;;;24.39;100.00;96627.69;5012773;28;20124;-56
2021/08/11 04:25:51;;;;;;;7.60;6.68;;;;;;;24.16;100.00;96631.13;5012223;28;20073;-49
2021/08/11 04:28:20;;;;;;;8.40;6.30;;;;;;;24.48;100.00;96630.94;5007908;28;20073;-55
2021/08/11 04:30:49;;;;;;;10.23;7.10;;;;;;;23.81;100.00;96633.59;5013654;28;20069;-56
2021/08/11 04:33:18;;;;;;;8.18;6.68;;;;;;;23.98;100.00;96622.22;5012241;28;20065;-55
2021/08/11 04:35:48;;;;;;;10.65;6.85;;;;;;;23.68;100.00;96625.66;5008928;28;20727;-57
2021/08/11 04:38:18;;;;;;;9.77;6.57;;;;;;;23.93;100.00;96630.97;5009692;28;20055;-59
2021/08/11 04:40:47;;;;;;;7.95;6.85;;;;;;;23.81;100.00;96625.53;5008517;28;20556;-56
2021/08/11 04:43:16;;;;;;;10.82;7.10;;;;;;;25.21;100.00;96626.34;5019190;28;20077;-56
2021/08/11 04:45:45;;;;;;;9.52;6.30;;;;;;;25.50;96.46;96635.41;5011894;28;20449;-58
2021/08/11 04:48:14;;;;;;;8.52;6.20;;;;;;;25.73;92.66;96639.97;5009387;28;20072;-58
2021/08/11 04:50:42;;;;;;;7.43;6.10;;;;;;;25.47;92.94;96647.50;5013256;28;20076;-55
2021/08/11 04:53:12;;;;;;;7.25;5.55;;;;;;;24.38;100.00;96647.63;5010029;28;20076;-50
2021/08/11 04:55:41;;;;;;;6.93;5.85;;;;;;;25.06;100.00;96640.25;5006291;28;20069;-56
2021/08/11 04:58:10;;;;;;;9.20;6.40;;;;;;;25.07;100.00;96642.72;5001160;28;20062;-56
2021/08/11 05:00:39;;;;;;;10.20;6.35;;;;;;;25.85;93.75;96640.81;5009589;28;20061;-57
2021/08/11 05:03:08;;;;;;;10.38;6.72;;;;;;;25.85;92.36;96645.41;5008580;28;20068;-60
2021/08/11 05:05:37;;;;;;;8.45;6.20;;;;;;;24.53;100.00;96647.22;5021618;28;20715;-57
2021/08/11 05:08:06;;;;;;;11.02;6.85;;;;;;;25.07;100.00;96642.72;5012647;28;20065;-58
2021/08/11 05:10:37;;;;;;;9.60;6.63;;;;;;;25.49;96.39;96649.94;4999169;28;20125;-56
2021/08/11 05:13:06;;;;;;;11.27;6.93;;;;;;;25.33;100.00;96644.19;5014570;28;20033;-57
2021/08/11 05:15:35;;;;;;;12.57;6.47;;;;;;;24.57;100.00;96645.75;5007575;28;20080;-54
2021/08/11 05:18:04;;;;;;;10.35;6.78;;;;;;;24.62;100.00;96645.06;5007492;28;20535;-60
2021/08/11 05:20:33;;;;;;;7.45;6.05;;;;;;;24.75;100.00;96638.66;5013306;28;20093;-56
2021/08/11 05:23:02;;;;;;;10.27;6.87;;;;;;;25.27;100.00;96647.81;5012406;28;20065;-54
2021/08/11 05:25:31;;;;;;;9.52;6.95;;;;;;;26.17;100.00;96643.91;5002821;28;20476;-55
2021/08/11 05:28:01;;;;;;;12.30;6.93;;;;;;;27.11;87.17;96648.94;5008001;28;20547;-50
2021/08/11 05:30:30;;;;;;;;;;;;;;;28.32;76.62;96645.59;5008318;28;20066;-55
2021/08/11 05:32:58;;;;;;;10.43;6.57;;;;;;;27.71;76.67;96643.94;5006942;28;20063;-60
2021/08/11 05:35:27;;;;;;;8.60;6.20;;;;;;;28.27;72.31;96648.25;5002761;28;20070;-54
2021/08/11 05:37:56;;;;;;;10.55;6.07;;;;;;;28.76;71.06;96642.03;5010203;28;20100;-60
2021/08/11 05:40:25;;;;;;;10.23;5.85;;;;;;;30.25;58.05;96648.38;5005888;28;20144;-56
2021/08/11 05:42:54;;;;;;;10.50;6.30;;;;;;;30.61;54.55;96650.41;5005434;28;20048;-59
2021/08/11 05:45:24;;;;;;;8.73;6.28;;;;;;;29.47;62.15;96653.56;5006149;28;20499;-56
2021/08/11 05:47:53;;;;;;;9.80;6.63;;;;;;;28.65;72.46;96651.16;5014463;28;20065;-51
2021/08/11 05:50:22;;;;;;;10.63;6.32;;;;;;;28.73;70.87;96645.25;4999585;28;20039;-60
2021/08/11 05:52:50;;;;;;;9.00;6.80;;;;;;;28.43;75.93;96648.47;5009089;28;20567;-54
2021/08/11 05:55:20;;;;;;;9.18;6.40;;;;;;;28.61;72.74;96651.66;5008883;28;20080;-54
2021/08/11 05:57:48;;;;;;;8.77;6.80;;;;;;;29.00;69.00;96656.16;5005497;28;20449;-54
2021/08/11 06:00:17;;;;;;;9.30;6.70;;;;;;;27.41;83.71;96654.06;5006462;28;20069;-54
2021/08/11 06:02:48;;;;;;;8.25;6.85;;;;;;;27.95;77.55;96650.00;5003982;28;20049;-57
2021/08/11 06:05:18;;;;;;;10.05;6.88;;;;;;;27.20;85.71;96655.63;5005393;28;20176;-58
2021/08/11 06:07:47;;;;;;;10.90;6.53;;;;;;;28.39;78.05;96657.13;5013337;28;20064;-61
2021/08/11 06:10:16;;;;;;;10.77;6.63;;;;;;;28.02;82.53;96653.34;5005430;28;20088;-59
2021/08/11 06:12:46;;;;;;;10.10;6.85;;;;;;;28.11;80.53;96659.97;5007660;28;20141;-53
2021/08/11 06:15:16;;;;;;;8.88;6.25;;;;;;;28.39;80.13;96659.00;5004817;28;20104;-60
2021/08/11 06:17:47;;;;;;;9.20;6.80;;;;;;;26.93;97.13;96654.56;5010148;28;20065;-57
2021/08/11 06:20:17;;;;;;;9.65;7.13;;;;;;;27.08;96.48;96652.16;5006761;28;20057;-55
2021/08/11 06:22:47;;;;;;;8.43;6.95;;;;;;;28.72;79.09;96649.88;5026184;28;20390;-59
2021/08/11 06:25:17;;;;;;;13.95;7.05;;;;;;;27.77;92.36;96651.94;5004910;28;20069;-53
2021/08/11 06:27:46;;;;;;;9.00;6.50;;;;;;;28.58;81.96;96654.06;5002607;28;20062;-57
2021/08/11 06:30:15;;;;;;;10.85;6.80;;;;;;;28.69;77.47;96663.13;5002833;28;20404;-58
2021/08/11 06:32:44;;;;;;;8.95;6.75;;;;;;;27.58;88.58;96661.38;5003207;28;20068;-51
2021/08/11 06:35:14;;;;;;;11.52;6.88;;;;;;;28.38;81.36;96665.47;5008974;28;20066;-58
2021/08/11 06:37:44;;;;;;;;;;;;;;;27.82;84.73;96657.41;5001466;28;20400;-57
2021/08/11 06:40:13;;;;;;;8.52;6.60;;;;;;;28.48;75.09;96662.09;4985786;28;20367;-55
2021/08/11 06:42:43;;;;;;;9.10;6.55;;;;;;;28.12;75.62;96654.31;4997927;28;20065;-57
2021/08/11 06:45:12;;;;;;;9.83;6.77;;;;;;;28.45;78.96;96657.16;5001035;28;20041;-58
2021/08/11 06:47:42;;;;;;;8.60;5.65;;;;;;;29.06;71.47;96663.25;4994763;28;20500;-59
2021/08/11 06:50:12;;;;;;;10.02;6.47;;;;;;;28.98;74.08;96652.84;5007149;28;20057;-56
2021/08/11 06:52:42;;;;;;;;;;;;;;;28.95;68.80;96654.19;5002455;28;20048;-58
2021/08/11 06:55:13;;;;;;;10.10;5.78;;;;;;;27.80;82.49;96664.16;4999693;28;19961;-56
2021/08/11 06:57:44;;;;;;;10.75;6.30;;;;;;;29.52;67.20;96653.59;4999915;28;20428;-57
2021/08/11 07:00:14;;;;;;;8.40;5.70;;;;;;;29.30;63.03;96661.03;5002947;28;20092;-57
2021/08/11 07:02:43;;;;;;;8.00;6.10;;;;;;;28.75;67.29;96656.69;5000101;28;20042;-60
2021/08/11 07:05:13;;;;;;;9.07;5.38;;;;;;;28.84;64.75;96658.69;4987557;28;20540;-57
2021/08/11 07:07:43;;;;;;;8.05;5.13;;;;;;;29.94;55.74;96651.97;4980385;28;20050;-61
2021/08/11 07:10:14;;;;;;;6.60;4.82;;;;;;;28.97;59.17;96657.44;5000860;28;20061;-59
2021/08/11 07:12:42;;;;;;;;;;;;;;;29.33;54.14;96663.22;5000811;28;20524;-58
2021/08/11 07:15:12;;;;;;;5.22;4.18;;;;;;;29.66;53.08;96666.75;5009041;28;19971;-55
2021/08/11 07:17:51;;;;;;;6.40;4.57;;;;;;;29.10;56.09;96667.91;5001786;28;20057;-52
2021/08/11 07:20:21;;;;;;;8.75;4.32;;;;;;;29.72;52.42;96663.81;5001815;28;20077;-59
2021/08/11 07:22:51;;;;;;;6.47;4.10;;;;;;;29.71;48.91;96670.34;5006005;28;20112;-56
2021/08/11 07:25:21;;;;;;;5.75;3.97;;;;;;;30.09;44.85;96675.75;5005079;28;20496;-52
2021/08/11 07:27:50;;;;;;;7.13;3.75;;;;;;;29.19;50.56;96665.56;4995568;28;20069;-52
2021/08/11 07:30:18;;;;;;;7.10;4.57;;;;;;;29.09;52.74;96669.00;5003418;28;20487;-52
2021/08/11 07:32:47;;;;;;;7.13;4.30;;;;;;;29.68;51.75;96667.34;5001955;28;20476;-58
2021/08/11 07:35:16;;;;;;;5.20;3.73;;;;;;;29.45;51.36;96665.75;4987006;28;20057;-50
2021/08/11 07:37:49;;;;;;;8.40;4.22;;;;;;;30.50;46.30;96666.69;5009395;28;20512;-53
2021/08/11 07:40:20;;;;;;;6.55;4.00;;;;;;;30.31;48.27;96673.69;5008603;28;20431;-53
2021/08/11 07:42:48;;;;;;;;;;;;;;;30.55;48.36;96676.78;5006879;28;20069;-57
2021/08/11 07:45:18;;;;;;;5.13;4.00;;;;;;;28.97;52.24;96670.19;5008952;28;19953;-55
2021/08/11 07:47:48;;;;;;;5.43;3.83;;;;;;;29.05;51.52;96673.31;5006477;28;20065;-55
2021/08/11 07:50:18;;;;;;;5.25;3.85;;;;;;;31.51;43.65;96672.63;5007179;28;20073;-56
2021/08/11 07:52:47;;;;;;;8.38;4.10;;;;;;;30.92;45.56;96678.56;5013639;28;20104;-54
2021/08/11 07:55:17;;;;;;;7.32;3.83;;;;;;;32.08;43.10;96660.56;5012151;28;20067;-52
2021/08/11 07:57:47;;;;;;;9.13;4.00;;;;;;;31.57;43.84;96665.28;5011607;28;20061;-54
2021/08/11 08:00:17;;;;;;;5.60;3.53;;;;;;;32.34;41.96;96663.22;5007756;28;20070;-53
2021/08/11 08:02:46;;;;;;;6.25;3.63;;;;;;;31.42;42.65;96666.94;5003165;28;20069;-53
2021/08/11 08:05:15;;;;;;;6.07;3.70;;;;;;;30.66;44.46;96672.19;5006157;28;20086;-51
2021/08/11 08:07:44;;;;;;;4.97;3.33;;;;;;;32.16;42.45;96661.91;5010778;28;20046;-56
2021/08/11 08:10:12;;;;;;;5.15;3.65;;;;;;;32.19;42.72;96669.53;5002642;28;20602;-58
2021/08/11 08:12:43;;;;;;;5.03;3.50;;;;;;;32.20;42.22;96671.16;5009282;28;20103;-57
2021/08/11 08:15:15;;;;;;;6.13;3.75;;;;;;;32.76;40.96;96678.31;5007135;28;20082;-58
2021/08/11 08:17:44;;;;;;;3.80;2.97;;;;;;;31.19;42.27;96676.41;5008516;28;20073;-57
2021/08/11 08:20:16;;;;;;;6.75;3.00;;;;;;;30.59;43.55;96677.88;5006188;28;20069;-53
2021/08/11 08:22:45;;;;;;;5.78;2.78;;;;;;;30.49;45.79;96680.59;4988371;28;20066;-57
2021/08/11 08:25:14;;;;;;;4.13;3.38;;;;;;;30.32;46.53;96677.22;5006685;28;20061;-52
2021/08/11 08:27:42;;;;;;;4.85;3.30;;;;;;;30.89;44.69;96677.19;5002348;28;20132;-54
2021/08/11 08:30:16;;;;;;;4.43;3.22;;;;;;;30.59;47.11;96680.59;5006962;28;20061;-55
2021/08/11 08:32:45;;;;;;;5.25;3.33;;;;;;;32.44;41.83;96665.91;5009206;28;20069;-51
2021/08/11 08:35:16;;;;;;;4.78;2.90;;;;;;;32.49;42.61;96673.28;5005400;28;20085;-56
2021/08/11 08:37:45;;;;;;;4.20;2.58;;;;;;;32.01;40.61;96667.44;5010652;28;20070;-50
2021/08/11 08:40:15;;;;;;;5.38;2.92;;;;;;;31.29;42.73;96670.16;5005890;28;20527;-56
2021/08/11 08:42:44;;;;;;;3.78;2.80;;;;;;;32.04;41.44;96669.59;5007342;28;20045;-51
2021/08/11 08:45:14;;;;;;;4.25;2.78;;;;;;;32.38;39.08;96669.72;5006137;28;20661;-52
2021/08/11 08:47:43;;;;;;;;;;;;;;;31.12;41.03;96666.88;5011715;28;20070;-54
2021/08/11 08:50:13;;;;;;;4.40;2.47;;;;;;;31.19;42.38;96665.50;5018823;28;20380;-53
2021/08/11 08:52:44;;;;;;;4.18;2.67;;;;;;;31.71;43.43;96660.91;5011141;28;22056;-52
2021/08/11 08:55:13;;;;;;;4.32;2.40;;;;;;;32.34;40.95;96664.00;5007678;28;20085;-55
2021/08/11 08:57:41;;;;;;;3.53;2.60;;;;;;;32.28;41.65;96656.13;5002639;28;20524;-57
2021/08/11 09:00:11;;;;;;;5.70;2.75;;;;;;;33.11;39.90;96655.47;4995676;28;20073;-57
2021/08/11 09:02:41;;;;;;;5.65;2.63;;;;;;;32.82;39.83;96658.91;5006752;28;20061;-54
2021/08/11 09:05:12;;;;;;;3.50;2.63;;;;;;;31.73;40.42;96661.44;5012030;28;20536;-54
2021/08/11 09:07:44;;;;;;;4.35;2.47;;;;;;;32.21;39.80;96663.78;5007094;28;20451;-53
2021/08/11 09:10:17;;;;;;;4.03;2.35;;;;;;;31.27;40.58;96666.88;5001925;28;20069;-56
2021/08/11 09:13:05;;;;;;;2.80;2.30;;;;;;;32.58;39.64;96655.22;4999879;28;20084;-52
2021/08/11 09:15:35;;;;;;;4.00;2.30;;;;;;;32.22;40.27;96662.72;5008897;28;20627;-56
2021/08/11 09:18:12;;;;;;;;;;;;;;;31.86;39.65;96660.03;5008794;28;20065;-56
2021/08/11 09:20:42;;;;;;;3.38;2.30;;;;;;;30.98;41.79;96661.94;5005297;28;19963;-55
2021/08/11 09:23:11;;;;;;;4.15;2.53;;;;;;;31.54;40.44;96658.47;5006261;28;20127;-56
2021/08/11 09:25:59;;;;;;;2.58;2.13;;;;;;;31.72;39.22;96656.25;5009676;28;20467;-55
2021/08/11 09:28:29;;;;;;;4.13;2.22;;;;;;;32.69;39.31;96650.50;5007511;28;20098;-56
2021/08/11 09:31:01;;;;;;;6.07;2.40;;;;;;;33.61;37.99;96650.72;5014597;28;21833;-52
2021/08/11 09:33:33;;;;;;;5.43;2.90;;;;;;;32.32;39.23;96652.56;5012304;28;20073;-55
2021/08/11 09:36:11;;;;;;;3.40;2.33;;;;;;;33.31;35.53;96655.31;5009123;28;20084;-51
2021/08/11 09:38:54;;;;;;;3.17;2.22;;;;;;;32.94;36.04;96661.31;5005413;28;20512;-53
2021/08/11 09:41:24;;;;;;;2.80;2.10;;;;;;;32.16;37.26;96659.19;5001076;28;20081;-49
2021/08/11 09:44:08;;;;;;;3.67;2.10;;;;;;;32.14;38.68;96650.44;5007934;28;20083;-48
2021/08/11 09:46:38;;;;;;;3.13;2.00;;;;;;;31.74;38.26;96654.91;5005280;28;20069;-53
2021/08/11 09:49:18;;;;;;;5.00;2.10;;;;;;;32.30;37.09;96651.22;4991711;28;20096;-55
2021/08/11 09:51:58;;;;;;;4.07;2.00;;;;;;;31.61;39.14;96647.28;5004994;28;20081;-54
2021/08/11 09:54:28;;;;;;;2.90;2.08;;;;;;;31.85;40.56;96655.69;5007073;28;20077;-56
2021/08/11 09:56:56;;;;;;;2.60;2.13;;;;;;;32.39;39.41;96647.63;5005333;28;20062;-54
2021/08/11 09:59:25;;;;;;;5.15;2.45;;;;;;;32.40;38.49;96653.91;4990246;28;20081;-57
2021/08/11 10:02:14;;;;;;;3.45;2.50;;;;;;;31.53;37.90;96658.75;5007370;28;20078;-58
2021/08/11 10:04:44;;;;;;;2.72;2.17;;;;;;;33.44;35.95;96653.84;5006564;28;20433;-57
2021/08/11 10:07:14;;;;;;;3.08;2.30;;;;;;;32.36;35.71;96645.47;4991727;28;20788;-55
2021/08/11 10:09:42;;;;;;;3.22;2.30;;;;;;;33.58;34.87;96650.47;5000773;28;20058;-50
2021/08/11 10:12:27;;;;;;;3.55;2.40;;;;;;;33.04;35.95;96642.13;5006661;28;20073;-56
2021/08/11 10:14:57;;;;;;;4.57;2.60;;;;;;;33.49;35.40;96644.81;4999846;28;20057;-57
2021/08/11 10:17:28;;;;;;;3.47;2.35;;;;;;;32.76;36.45;96638.19;5009503;28;20112;-54
2021/08/11 10:19:59;;;;;;;6.43;2.65;;;;;;;32.52;37.66;96646.25;5010574;28;20092;-58
2021/08/11 10:22:28;;;;;;;5.30;2.97;;;;;;;32.99;39.57;96649.53;5000338;28;20065;-52
2021/08/11 10:24:57;;;;;;;3.42;2.65;;;;;;;32.88;39.25;96642.50;5011890;28;20066;-52
2021/08/11 10:27:25;;;;;;;4.22;2.88;;;;;;;32.31;39.52;96636.47;4991937;28;20039;-52
2021/08/11 10:29:54;;;;;;;3.70;2.60;;;;;;;33.18;37.13;96638.75;4993190;28;20474;-48
2021/08/11 10:32:24;;;;;;;5.82;2.85;;;;;;;32.14;39.46;96643.09;5004434;28;20096;-55
2021/08/11 10:34:54;;;;;;;5.05;2.90;;;;;;;31.94;38.50;96637.72;5010973;28;20476;-54
2021/08/11 10:37:25;;;;;;;4.38;2.92;;;;;;;33.71;38.22;96636.13;5003778;28;20068;-55
2021/08/11 10:39:54;;;;;;;4.72;3.08;;;;;;;32.85;37.04;96633.75;5004233;28;20455;-49
2021/08/11 10:42:23;;;;;;;4.95;2.90;;;;;;;33.72;36.95;96632.28;5001659;28;21496;-57
2021/08/11 10:44:57;;;;;;;6.00;3.00;;;;;;;31.78;40.08;96636.06;5007612;28;20088;-52
2021/08/11 10:47:30;;;;;;;4.00;3.08;;;;;;;32.54;39.25;96632.31;5004372;28;20073;-49
2021/08/11 10:50:00;;;;;;;5.13;2.78;;;;;;;33.47;36.34;96625.09;5014269;28;20525;-49
2021/08/11 10:52:31;;;;;;;4.72;3.20;;;;;;;32.77;40.09;96626.16;5009025;28;20073;-50
2021/08/11 10:55:01;;;;;;;4.70;3.10;;;;;;;33.55;37.04;96632.72;5003004;28;20070;-49
2021/08/11 10:57:48;;;;;;;;;;;;;;;33.87;36.13;96623.94;5005764;28;20512;-47
2021/08/11 11:00:41;;;;;;;4.15;2.97;;;;;;;34.04;37.29;96622.69;5013526;28;19948;-54
2021/08/11 11:03:48;;;;;;;4.75;3.20;;;;;;;34.17;35.21;96628.28;5017353;28;20084;-47
2021/08/11 11:06:17;;;;;;;5.47;3.35;;;;;;;33.49;39.41;96631.16;5006620;28;20242;-53
2021/08/11 11:08:47;;;;;;;4.85;3.45;;;;;;;32.88;37.17;96637.03;5005457;28;20072;-51
2021/08/11 11:11:43;;;;;;;;;;;;;;;33.74;36.33;96625.41;5005455;28;20082;-52
2021/08/11 11:14:44;;;;;;;4.72;2.90;;;;;;;34.29;36.36;96633.31;5005260;28;19967;-52
2021/08/11 11:17:13;;;;;;;3.55;2.95;;;;;;;32.99;36.52;96628.50;4966397;28;20542;-58
2021/08/11 11:20:29;;;;;;;6.85;3.20;;;;;;;34.23;34.94;96627.09;4991922;28;20517;-52
2021/08/11 11:23:03;;;;;;;3.40;3.00;;;;;;;33.82;34.35;96623.16;5005431;28;21205;-53
2021/08/11 11:26:05;;;;;;;4.15;3.45;;;;;;;34.50;34.65;96623.72;5009478;28;20562;-54
2021/08/11 11:29:04;;;;;;;5.03;3.10;;;;;;;33.83;35.76;96622.88;5000346;28;20071;-57
2021/08/11 11:31:43;;;;;;;4.93;3.47;;;;;;;33.95;35.76;96620.53;4958003;28;20066;-53
2021/08/11 11:34:38;;;;;;;5.65;3.53;;;;;;;34.35;36.11;96620.41;4995349;28;20715;-51
2021/08/11 11:37:29;;;;;;;5.10;3.40;;;;;;;34.79;34.00;96613.78;5007748;28;20072;-50
2021/08/11 11:40:12;;;;;;;5.63;3.70;;;;;;;33.95;36.65;96617.81;5005832;28;20071;-49
2021/08/11 11:42:47;;;;;;;4.57;3.65;;;;;;;33.95;37.16;96614.25;5005918;28;20473;-49
2021/08/11 11:45:16;;;;;;;6.40;4.18;;;;;;;34.69;35.80;96612.03;4995885;28;20062;-52
2021/08/11 11:48:10;;;;;;;5.72;3.80;;;;;;;34.93;35.86;96617.44;4981024;28;20073;-57